sensor_id;sensor_type;location;lat;lon;timestamp;P1;durP1;ratioP1;P2;durP2;ratioP2
51298;SDS011;37382;45.192;9.790;2023-07-28T04:08:51;27.92;;;10.65;;
51298;SDS011;37382;45.192;9.790;2023-07-28T04:11:18;31.55;;;9.90;;
51298;SDS011;37382;45.192;9.790;2023-07-28T04:13:46;27.35;;;10.30;;
51298;SDS011;37382;45.192;9.790;2023-07-28T04:16:14;18.55;;;9.30;;
51298;SDS011;37382;45.192;9.790;2023-07-28T04:18:43;22.98;;;9.65;;
51298;SDS011;37382;45.192;9.790;2023-07-28T04:21:11;30.30;;;10.57;;
51298;SDS011;37382;45.192;9.790;2023-07-28T04:23:39;22.40;;;10.18;;
51298;SDS011;37382;45.192;9.790;2023-07-28T04:26:08;18.33;;;9.65;;
51298;SDS011;37382;45.192;9.790;2023-07-28T04:28:36;26.35;;;10.77;;
51298;SDS011;37382;45.192;9.790;2023-07-28T04:31:03;19.33;;;10.45;;
51298;SDS011;37382;45.192;9.790;2023-07-28T04:33:49;19.05;;;10.25;;
51298;SDS011;37382;45.192;9.790;2023-07-28T04:36:17;24.55;;;10.93;;
51298;SDS011;37382;45.192;9.790;2023-07-28T04:38:45;20.23;;;10.38;;
51298;SDS011;37382;45.192;9.790;2023-07-28T04:41:12;26.73;;;11.40;;
51298;SDS011;37382;45.192;9.790;2023-07-28T04:43:50;24.33;;;11.27;;
51298;SDS011;37382;45.192;9.790;2023-07-28T04:46:18;19.63;;;10.23;;
51298;SDS011;37382;45.192;9.790;2023-07-28T04:48:54;22.25;;;10.40;;
51298;SDS011;37382;45.192;9.790;2023-07-28T04:51:54;21.67;;;10.60;;
51298;SDS011;37382;45.192;9.790;2023-07-28T04:54:30;24.33;;;10.32;;
51298;SDS011;37382;45.192;9.790;2023-07-28T04:56:58;17.00;;;11.32;;
51298;SDS011;37382;45.192;9.790;2023-07-28T04:59:31;20.25;;;10.52;;
51298;SDS011;37382;45.192;9.790;2023-07-28T05:01:59;15.80;;;9.98;;
51298;SDS011;37382;45.192;9.790;2023-07-28T05:04:27;18.55;;;9.88;;
51298;SDS011;37382;45.192;9.790;2023-07-28T05:06:54;20.10;;;10.20;;
51298;SDS011;37382;45.192;9.790;2023-07-28T05:09:22;19.45;;;10.07;;
51298;SDS011;37382;45.192;9.790;2023-07-28T05:11:50;14.50;;;10.00;;
51298;SDS011;37382;45.192;9.790;2023-07-28T05:14:18;17.30;;;10.52;;
51298;SDS011;37382;45.192;9.790;2023-07-28T05:16:45;18.92;;;10.13;;
51298;SDS011;37382;45.192;9.790;2023-07-28T05:19:31;16.73;;;11.00;;
51298;SDS011;37382;45.192;9.790;2023-07-28T05:22:01;18.60;;;11.40;;
51298;SDS011;37382;45.192;9.790;2023-07-28T05:24:39;17.48;;;12.18;;
51298;SDS011;37382;45.192;9.790;2023-07-28T05:27:07;23.17;;;10.95;;
51298;SDS011;37382;45.192;9.790;2023-07-28T05:29:35;21.48;;;10.73;;
51298;SDS011;37382;45.192;9.790;2023-07-28T05:32:05;17.45;;;11.13;;
51298;SDS011;37382;45.192;9.790;2023-07-28T05:34:42;17.50;;;11.30;;
51298;SDS011;37382;45.192;9.790;2023-07-28T05:37:10;21.08;;;11.65;;
51298;SDS011;37382;45.192;9.790;2023-07-28T05:39:38;23.05;;;12.35;;
51298;SDS011;37382;45.192;9.790;2023-07-28T05:42:05;22.75;;;12.20;;
51298;SDS011;37382;45.192;9.790;2023-07-28T05:44:33;19.13;;;11.65;;
51298;SDS011;37382;45.192;9.790;2023-07-28T05:47:01;19.73;;;11.98;;
51298;SDS011;37382;45.192;9.790;2023-07-28T05:49:30;18.52;;;12.70;;
51298;SDS011;37382;45.192;9.790;2023-07-28T05:51:58;20.10;;;12.88;;
51298;SDS011;37382;45.192;9.790;2023-07-28T05:54:26;18.38;;;12.48;;
51298;SDS011;37382;45.192;9.790;2023-07-28T05:56:54;15.75;;;12.38;;
51298;SDS011;37382;45.192;9.790;2023-07-28T05:59:21;20.10;;;12.10;;
51298;SDS011;37382;45.192;9.790;2023-07-28T06:01:48;17.77;;;12.63;;
51298;SDS011;37382;45.192;9.790;2023-07-28T06:04:35;19.02;;;12.45;;
51298;SDS011;37382;45.192;9.790;2023-07-28T06:07:05;24.02;;;12.93;;
51298;SDS011;37382;45.192;9.790;2023-07-28T06:09:33;18.23;;;11.55;;
51298;SDS011;37382;45.192;9.790;2023-07-28T06:12:01;18.00;;;12.80;;
51298;SDS011;37382;45.192;9.790;2023-07-28T06:14:29;25.38;;;12.57;;
51298;SDS011;37382;45.192;9.790;2023-07-28T06:16:57;20.10;;;12.75;;
51298;SDS011;37382;45.192;9.790;2023-07-28T06:21:56;22.25;;;12.15;;
51298;SDS011;37382;45.192;9.790;2023-07-28T06:24:24;22.23;;;13.65;;
51298;SDS011;37382;45.192;9.790;2023-07-28T06:26:51;25.10;;;12.52;;
51298;SDS011;37382;45.192;9.790;2023-07-28T06:29:19;23.98;;;12.88;;
51298;SDS011;37382;45.192;9.790;2023-07-28T06:31:46;31.73;;;12.95;;
51298;SDS011;37382;45.192;9.790;2023-07-28T06:34:14;23.05;;;13.35;;
51298;SDS011;37382;45.192;9.790;2023-07-28T06:36:42;22.02;;;13.23;;
51298;SDS011;37382;45.192;9.790;2023-07-28T06:39:09;29.98;;;13.00;;
51298;SDS011;37382;45.192;9.790;2023-07-28T06:41:37;18.98;;;13.32;;
51298;SDS011;37382;45.192;9.790;2023-07-28T06:44:07;22.17;;;12.90;;
51298;SDS011;37382;45.192;9.790;2023-07-28T06:46:35;30.50;;;14.00;;
51298;SDS011;37382;45.192;9.790;2023-07-28T06:49:03;25.92;;;13.68;;
51298;SDS011;37382;45.192;9.790;2023-07-28T06:51:30;21.10;;;13.50;;
51298;SDS011;37382;45.192;9.790;2023-07-28T06:53:58;27.38;;;14.82;;
51298;SDS011;37382;45.192;9.790;2023-07-28T06:56:26;26.00;;;13.25;;
51298;SDS011;37382;45.192;9.790;2023-07-28T06:58:54;23.80;;;13.88;;
51298;SDS011;37382;45.192;9.790;2023-07-28T07:01:38;43.33;;;15.77;;
51298;SDS011;37382;45.192;9.790;2023-07-28T07:04:06;29.98;;;14.82;;
51298;SDS011;37382;45.192;9.790;2023-07-28T07:06:34;23.17;;;13.73;;
51298;SDS011;37382;45.192;9.790;2023-07-28T07:09:02;22.25;;;14.10;;
51298;SDS011;37382;45.192;9.790;2023-07-28T07:11:30;33.95;;;14.30;;
51298;SDS011;37382;45.192;9.790;2023-07-28T07:13:59;27.25;;;14.82;;
51298;SDS011;37382;45.192;9.790;2023-07-28T07:16:27;38.80;;;15.70;;
51298;SDS011;37382;45.192;9.790;2023-07-28T07:18:55;22.27;;;14.75;;
51298;SDS011;37382;45.192;9.790;2023-07-28T07:21:22;28.38;;;15.95;;
51298;SDS011;37382;45.192;9.790;2023-07-28T07:23:50;23.58;;;13.82;;
51298;SDS011;37382;45.192;9.790;2023-07-28T07:26:27;38.40;;;15.25;;
51298;SDS011;37382;45.192;9.790;2023-07-28T07:28:55;39.15;;;16.33;;
51298;SDS011;37382;45.192;9.790;2023-07-28T07:31:23;22.58;;;15.63;;
51298;SDS011;37382;45.192;9.790;2023-07-28T07:33:50;26.52;;;15.25;;
51298;SDS011;37382;45.192;9.790;2023-07-28T07:36:19;33.67;;;15.65;;
51298;SDS011;37382;45.192;9.790;2023-07-28T07:38:47;29.38;;;15.40;;
51298;SDS011;37382;45.192;9.790;2023-07-28T07:41:16;29.95;;;14.73;;
51298;SDS011;37382;45.192;9.790;2023-07-28T07:43:47;32.47;;;14.40;;
51298;SDS011;37382;45.192;9.790;2023-07-28T07:46:16;21.45;;;14.52;;
51298;SDS011;37382;45.192;9.790;2023-07-28T07:48:44;25.42;;;14.20;;
51298;SDS011;37382;45.192;9.790;2023-07-28T07:51:12;22.90;;;14.55;;
51298;SDS011;37382;45.192;9.790;2023-07-28T07:53:39;41.30;;;15.88;;
51298;SDS011;37382;45.192;9.790;2023-07-28T07:56:07;27.65;;;13.40;;
51298;SDS011;37382;45.192;9.790;2023-07-28T07:58:35;21.30;;;14.05;;
51298;SDS011;37382;45.192;9.790;2023-07-28T08:01:04;24.77;;;13.32;;
51298;SDS011;37382;45.192;9.790;2023-07-28T08:03:32;23.42;;;11.80;;
51298;SDS011;37382;45.192;9.790;2023-07-28T08:06:00;38.45;;;11.65;;
51298;SDS011;37382;45.192;9.790;2023-07-28T08:08:28;14.55;;;8.93;;
51298;SDS011;37382;45.192;9.790;2023-07-28T08:10:56;16.38;;;10.23;;
51298;SDS011;37382;45.192;9.790;2023-07-28T08:13:23;25.08;;;10.68;;
51298;SDS011;37382;45.192;9.790;2023-07-28T08:15:51;29.98;;;10.30;;
51298;SDS011;37382;45.192;9.790;2023-07-28T08:18:18;25.58;;;10.65;;
51298;SDS011;37382;45.192;9.790;2023-07-28T08:20:46;84.63;;;12.45;;
51298;SDS011;37382;45.192;9.790;2023-07-28T08:23:14;27.83;;;9.27;;
51298;SDS011;37382;45.192;9.790;2023-07-28T08:25:42;17.52;;;9.25;;
51298;SDS011;37382;45.192;9.790;2023-07-28T08:28:10;24.02;;;10.38;;
51298;SDS011;37382;45.192;9.790;2023-07-28T08:30:37;23.42;;;10.55;;
51298;SDS011;37382;45.192;9.790;2023-07-28T08:33:05;28.17;;;10.25;;
51298;SDS011;37382;45.192;9.790;2023-07-28T08:35:33;48.08;;;11.27;;
51298;SDS011;37382;45.192;9.790;2023-07-28T08:38:01;18.85;;;9.10;;
51298;SDS011;37382;45.192;9.790;2023-07-28T08:40:29;20.42;;;9.38;;
51298;SDS011;37382;45.192;9.790;2023-07-28T08:42:57;21.15;;;8.90;;
51298;SDS011;37382;45.192;9.790;2023-07-28T08:45:24;19.17;;;9.50;;
51298;SDS011;37382;45.192;9.790;2023-07-28T08:47:52;20.48;;;8.63;;
51298;SDS011;37382;45.192;9.790;2023-07-28T08:50:20;20.50;;;8.80;;
51298;SDS011;37382;45.192;9.790;2023-07-28T08:52:48;14.10;;;8.40;;
51298;SDS011;37382;45.192;9.790;2023-07-28T08:55:17;18.23;;;9.85;;
51298;SDS011;37382;45.192;9.790;2023-07-28T08:57:45;17.88;;;9.38;;
51298;SDS011;37382;45.192;9.790;2023-07-28T09:00:13;20.13;;;8.40;;
51298;SDS011;37382;45.192;9.790;2023-07-28T09:02:41;17.65;;;7.53;;
51298;SDS011;37382;45.192;9.790;2023-07-28T09:05:21;15.48;;;7.38;;
51298;SDS011;37382;45.192;9.790;2023-07-28T09:07:51;20.80;;;7.38;;
51298;SDS011;37382;45.192;9.790;2023-07-28T09:10:19;13.57;;;7.30;;
51298;SDS011;37382;45.192;9.790;2023-07-28T09:12:48;13.00;;;7.13;;
51298;SDS011;37382;45.192;9.790;2023-07-28T09:15:17;31.17;;;8.33;;
51298;SDS011;37382;45.192;9.790;2023-07-28T09:17:45;12.35;;;6.68;;
51298;SDS011;37382;45.192;9.790;2023-07-28T09:20:17;14.63;;;6.60;;
51298;SDS011;37382;45.192;9.790;2023-07-28T09:25:16;20.38;;;6.60;;
51298;SDS011;37382;45.192;9.790;2023-07-28T09:27:49;15.50;;;7.50;;
51298;SDS011;37382;45.192;9.790;2023-07-28T09:30:20;14.23;;;6.40;;
51298;SDS011;37382;45.192;9.790;2023-07-28T09:32:49;30.15;;;6.28;;
51298;SDS011;37382;45.192;9.790;2023-07-28T09:35:23;10.25;;;5.57;;
51298;SDS011;37382;45.192;9.790;2023-07-28T09:37:50;15.85;;;6.43;;
51298;SDS011;37382;45.192;9.790;2023-07-28T09:40:20;13.50;;;6.57;;
51298;SDS011;37382;45.192;9.790;2023-07-28T09:42:49;18.30;;;7.25;;
51298;SDS011;37382;45.192;9.790;2023-07-28T09:45:21;19.05;;;6.53;;
51298;SDS011;37382;45.192;9.790;2023-07-28T09:48:04;21.45;;;5.75;;
51298;SDS011;37382;45.192;9.790;2023-07-28T09:50:38;13.10;;;5.60;;
51298;SDS011;37382;45.192;9.790;2023-07-28T09:53:08;12.98;;;5.25;;
51298;SDS011;37382;45.192;9.790;2023-07-28T09:55:38;12.00;;;4.27;;
51298;SDS011;37382;45.192;9.790;2023-07-28T10:00:38;11.23;;;4.47;;
51298;SDS011;37382;45.192;9.790;2023-07-28T10:03:07;15.55;;;5.60;;
51298;SDS011;37382;45.192;9.790;2023-07-28T10:05:36;13.50;;;5.15;;
51298;SDS011;37382;45.192;9.790;2023-07-28T10:08:04;16.17;;;5.22;;
51298;SDS011;37382;45.192;9.790;2023-07-28T10:10:32;21.27;;;5.25;;
51298;SDS011;37382;45.192;9.790;2023-07-28T10:13:01;13.73;;;5.55;;
51298;SDS011;37382;45.192;9.790;2023-07-28T10:15:31;15.43;;;4.97;;
51298;SDS011;37382;45.192;9.790;2023-07-28T10:18:00;21.15;;;5.30;;
51298;SDS011;37382;45.192;9.790;2023-07-28T10:23:15;28.08;;;6.10;;
51298;SDS011;37382;45.192;9.790;2023-07-28T10:25:55;11.52;;;5.25;;
51298;SDS011;37382;45.192;9.790;2023-07-28T10:28:30;19.17;;;5.32;;
51298;SDS011;37382;45.192;9.790;2023-07-28T10:31:10;22.48;;;6.05;;
51298;SDS011;37382;45.192;9.790;2023-07-28T10:33:39;13.48;;;5.05;;
51298;SDS011;37382;45.192;9.790;2023-07-28T10:38:59;16.13;;;4.80;;
51298;SDS011;37382;45.192;9.790;2023-07-28T10:41:27;11.93;;;4.40;;
51298;SDS011;37382;45.192;9.790;2023-07-28T10:43:55;12.25;;;4.97;;
51298;SDS011;37382;45.192;9.790;2023-07-28T10:46:22;12.57;;;4.30;;
51298;SDS011;37382;45.192;9.790;2023-07-28T10:48:50;19.75;;;5.38;;
51298;SDS011;37382;45.192;9.790;2023-07-28T10:51:22;12.00;;;4.18;;
51298;SDS011;37382;45.192;9.790;2023-07-28T10:53:55;17.70;;;5.03;;
51298;SDS011;37382;45.192;9.790;2023-07-28T10:56:25;13.65;;;4.25;;
51298;SDS011;37382;45.192;9.790;2023-07-28T10:59:00;11.98;;;4.00;;
51298;SDS011;37382;45.192;9.790;2023-07-28T11:01:32;9.35;;;4.68;;
51298;SDS011;37382;45.192;9.790;2023-07-28T11:06:46;8.68;;;3.92;;
51298;SDS011;37382;45.192;9.790;2023-07-28T11:09:16;9.25;;;4.47;;
51298;SDS011;37382;45.192;9.790;2023-07-28T11:11:45;12.68;;;4.53;;
51298;SDS011;37382;45.192;9.790;2023-07-28T11:14:15;14.93;;;4.18;;
51298;SDS011;37382;45.192;9.790;2023-07-28T11:16:45;12.77;;;5.10;;
51298;SDS011;37382;45.192;9.790;2023-07-28T11:19:17;11.13;;;3.83;;
51298;SDS011;37382;45.192;9.790;2023-07-28T11:21:52;11.18;;;3.40;;
51298;SDS011;37382;45.192;9.790;2023-07-28T11:24:20;15.57;;;4.15;;
51298;SDS011;37382;45.192;9.790;2023-07-28T11:26:49;14.02;;;3.53;;
51298;SDS011;37382;45.192;9.790;2023-07-28T11:29:18;18.27;;;4.63;;
51298;SDS011;37382;45.192;9.790;2023-07-28T11:31:47;15.27;;;4.72;;
51298;SDS011;37382;45.192;9.790;2023-07-28T11:34:16;11.20;;;4.03;;
51298;SDS011;37382;45.192;9.790;2023-07-28T11:36:45;15.68;;;4.20;;
51298;SDS011;37382;45.192;9.790;2023-07-28T11:39:14;13.00;;;3.78;;
51298;SDS011;37382;45.192;9.790;2023-07-28T11:41:42;14.57;;;3.45;;
51298;SDS011;37382;45.192;9.790;2023-07-28T11:44:11;10.85;;;3.95;;
51298;SDS011;37382;45.192;9.790;2023-07-28T11:46:40;10.50;;;3.80;;
51298;SDS011;37382;45.192;9.790;2023-07-28T11:49:13;9.05;;;3.42;;
51298;SDS011;37382;45.192;9.790;2023-07-28T11:51:44;11.07;;;3.70;;
51298;SDS011;37382;45.192;9.790;2023-07-28T11:54:13;11.27;;;3.20;;
51298;SDS011;37382;45.192;9.790;2023-07-28T11:56:42;5.03;;;2.90;;
51298;SDS011;37382;45.192;9.790;2023-07-28T11:59:12;15.32;;;3.35;;
51298;SDS011;37382;45.192;9.790;2023-07-28T12:01:53;6.43;;;2.92;;
51298;SDS011;37382;45.192;9.790;2023-07-28T12:07:09;15.55;;;3.17;;
51298;SDS011;37382;45.192;9.790;2023-07-28T12:12:30;11.98;;;2.70;;
51298;SDS011;37382;45.192;9.790;2023-07-28T12:15:28;6.18;;;2.47;;
51298;SDS011;37382;45.192;9.790;2023-07-28T12:20:43;8.60;;;2.65;;
51298;SDS011;37382;45.192;9.790;2023-07-28T12:23:17;9.07;;;3.30;;
51298;SDS011;37382;45.192;9.790;2023-07-28T12:25:52;24.58;;;3.85;;
51298;SDS011;37382;45.192;9.790;2023-07-28T12:28:22;4.07;;;2.40;;
51298;SDS011;37382;45.192;9.790;2023-07-28T12:30:50;13.50;;;3.40;;
51298;SDS011;37382;45.192;9.790;2023-07-28T12:33:20;8.90;;;3.20;;
51298;SDS011;37382;45.192;9.790;2023-07-28T12:35:49;9.10;;;2.67;;
51298;SDS011;37382;45.192;9.790;2023-07-28T12:38:18;8.73;;;2.80;;
51298;SDS011;37382;45.192;9.790;2023-07-28T12:40:49;11.25;;;2.50;;
51298;SDS011;37382;45.192;9.790;2023-07-28T12:43:20;8.10;;;2.72;;
51298;SDS011;37382;45.192;9.790;2023-07-28T12:45:50;10.25;;;2.75;;
51298;SDS011;37382;45.192;9.790;2023-07-28T12:48:21;10.55;;;2.92;;
51298;SDS011;37382;45.192;9.790;2023-07-28T12:50:49;16.48;;;2.78;;
51298;SDS011;37382;45.192;9.790;2023-07-28T12:53:30;10.85;;;2.70;;
51298;SDS011;37382;45.192;9.790;2023-07-28T12:55:57;11.77;;;3.00;;
51298;SDS011;37382;45.192;9.790;2023-07-28T12:58:27;8.38;;;2.78;;
51298;SDS011;37382;45.192;9.790;2023-07-28T13:00:58;7.45;;;2.75;;
51298;SDS011;37382;45.192;9.790;2023-07-28T13:03:29;7.88;;;2.95;;
51298;SDS011;37382;45.192;9.790;2023-07-28T13:05:57;9.35;;;2.63;;
51298;SDS011;37382;45.192;9.790;2023-07-28T13:08:25;8.73;;;3.00;;
51298;SDS011;37382;45.192;9.790;2023-07-28T13:13:26;5.50;;;2.90;;
51298;SDS011;37382;45.192;9.790;2023-07-28T13:15:57;9.60;;;2.45;;
51298;SDS011;37382;45.192;9.790;2023-07-28T13:18:24;8.57;;;2.70;;
51298;SDS011;37382;45.192;9.790;2023-07-28T13:20:56;10.15;;;2.85;;
51298;SDS011;37382;45.192;9.790;2023-07-28T13:23:24;9.38;;;1.90;;
51298;SDS011;37382;45.192;9.790;2023-07-28T13:25:51;18.52;;;2.75;;
51298;SDS011;37382;45.192;9.790;2023-07-28T13:28:19;8.13;;;2.67;;
51298;SDS011;37382;45.192;9.790;2023-07-28T13:30:47;17.67;;;2.92;;
51298;SDS011;37382;45.192;9.790;2023-07-28T13:33:15;15.73;;;2.70;;
51298;SDS011;37382;45.192;9.790;2023-07-28T13:35:43;9.38;;;2.40;;
51298;SDS011;37382;45.192;9.790;2023-07-28T13:38:10;13.35;;;2.92;;
51298;SDS011;37382;45.192;9.790;2023-07-28T13:40:37;9.45;;;2.67;;
51298;SDS011;37382;45.192;9.790;2023-07-28T13:43:24;9.50;;;2.50;;
51298;SDS011;37382;45.192;9.790;2023-07-28T13:45:51;6.30;;;2.78;;
51298;SDS011;37382;45.192;9.790;2023-07-28T13:48:18;9.93;;;3.05;;
51298;SDS011;37382;45.192;9.790;2023-07-28T13:50:50;10.55;;;2.97;;
51298;SDS011;37382;45.192;9.790;2023-07-28T13:53:20;12.80;;;2.63;;
51298;SDS011;37382;45.192;9.790;2023-07-28T13:55:50;8.07;;;2.75;;
51298;SDS011;37382;45.192;9.790;2023-07-28T13:58:21;6.25;;;2.20;;
51298;SDS011;37382;45.192;9.790;2023-07-28T14:00:48;14.32;;;3.05;;
51298;SDS011;37382;45.192;9.790;2023-07-28T14:03:15;8.20;;;2.60;;
51298;SDS011;37382;45.192;9.790;2023-07-28T14:05:47;10.02;;;2.55;;
51298;SDS011;37382;45.192;9.790;2023-07-28T14:08:14;13.55;;;3.25;;
51298;SDS011;37382;45.192;9.790;2023-07-28T14:10:45;6.90;;;2.42;;
51298;SDS011;37382;45.192;9.790;2023-07-28T14:13:13;7.20;;;2.30;;
51298;SDS011;37382;45.192;9.790;2023-07-28T14:15:41;12.27;;;2.42;;
51298;SDS011;37382;45.192;9.790;2023-07-28T14:18:10;6.43;;;2.20;;
51298;SDS011;37382;45.192;9.790;2023-07-28T14:20:38;7.85;;;2.75;;
51298;SDS011;37382;45.192;9.790;2023-07-28T14:25:49;10.43;;;2.70;;
51298;SDS011;37382;45.192;9.790;2023-07-28T14:28:18;8.50;;;2.80;;
51298;SDS011;37382;45.192;9.790;2023-07-28T14:30:45;9.63;;;2.90;;
51298;SDS011;37382;45.192;9.790;2023-07-28T14:33:14;9.82;;;2.58;;
51298;SDS011;37382;45.192;9.790;2023-07-28T14:35:43;7.97;;;2.78;;
51298;SDS011;37382;45.192;9.790;2023-07-28T14:38:13;9.52;;;3.00;;
51298;SDS011;37382;45.192;9.790;2023-07-28T14:40:41;9.45;;;2.58;;
51298;SDS011;37382;45.192;9.790;2023-07-28T14:45:39;9.70;;;2.60;;
51298;SDS011;37382;45.192;9.790;2023-07-28T14:48:06;13.68;;;2.60;;
51298;SDS011;37382;45.192;9.790;2023-07-28T14:50:34;14.70;;;2.53;;
51298;SDS011;37382;45.192;9.790;2023-07-28T14:53:02;10.70;;;2.63;;
51298;SDS011;37382;45.192;9.790;2023-07-28T14:55:30;15.85;;;2.67;;
51298;SDS011;37382;45.192;9.790;2023-07-28T14:57:57;6.70;;;2.30;;
51298;SDS011;37382;45.192;9.790;2023-07-28T15:00:25;6.40;;;2.13;;
51298;SDS011;37382;45.192;9.790;2023-07-28T15:02:53;6.22;;;2.47;;
51298;SDS011;37382;45.192;9.790;2023-07-28T15:05:21;8.38;;;2.38;;
51298;SDS011;37382;45.192;9.790;2023-07-28T15:07:49;5.85;;;2.13;;
51298;SDS011;37382;45.192;9.790;2023-07-28T15:10:16;12.23;;;2.92;;
51298;SDS011;37382;45.192;9.790;2023-07-28T15:12:44;8.93;;;2.67;;
51298;SDS011;37382;45.192;9.790;2023-07-28T15:15:15;12.30;;;2.80;;
51298;SDS011;37382;45.192;9.790;2023-07-28T15:17:43;13.85;;;2.65;;
51298;SDS011;37382;45.192;9.790;2023-07-28T15:20:11;13.48;;;2.92;;
51298;SDS011;37382;45.192;9.790;2023-07-28T15:22:39;10.38;;;2.65;;
51298;SDS011;37382;45.192;9.790;2023-07-28T15:25:07;12.40;;;2.50;;
51298;SDS011;37382;45.192;9.790;2023-07-28T15:27:35;12.50;;;2.63;;
51298;SDS011;37382;45.192;9.790;2023-07-28T15:30:02;9.38;;;2.35;;
51298;SDS011;37382;45.192;9.790;2023-07-28T15:32:32;8.57;;;2.20;;
51298;SDS011;37382;45.192;9.790;2023-07-28T15:34:59;11.63;;;2.50;;
51298;SDS011;37382;45.192;9.790;2023-07-28T15:37:28;7.15;;;2.35;;
51298;SDS011;37382;45.192;9.790;2023-07-28T15:39:56;13.05;;;2.30;;
51298;SDS011;37382;45.192;9.790;2023-07-28T15:42:24;9.45;;;3.20;;
51298;SDS011;37382;45.192;9.790;2023-07-28T15:44:54;7.45;;;2.35;;
51298;SDS011;37382;45.192;9.790;2023-07-28T15:47:22;6.03;;;2.05;;
51298;SDS011;37382;45.192;9.790;2023-07-28T15:49:50;10.15;;;2.88;;
51298;SDS011;37382;45.192;9.790;2023-07-28T15:52:19;13.88;;;2.40;;
51298;SDS011;37382;45.192;9.790;2023-07-28T15:54:47;5.22;;;2.22;;
51298;SDS011;37382;45.192;9.790;2023-07-28T15:57:15;6.55;;;2.20;;
51298;SDS011;37382;45.192;9.790;2023-07-28T15:59:42;16.52;;;2.40;;
51298;SDS011;37382;45.192;9.790;2023-07-28T16:02:12;11.02;;;2.70;;
51298;SDS011;37382;45.192;9.790;2023-07-28T16:04:40;8.93;;;2.45;;
51298;SDS011;37382;45.192;9.790;2023-07-28T16:07:08;7.00;;;1.70;;
51298;SDS011;37382;45.192;9.790;2023-07-28T16:09:36;12.65;;;2.40;;
51298;SDS011;37382;45.192;9.790;2023-07-28T16:12:03;7.97;;;2.17;;
51298;SDS011;37382;45.192;9.790;2023-07-28T16:14:31;8.10;;;2.10;;
51298;SDS011;37382;45.192;9.790;2023-07-28T16:16:59;9.65;;;2.00;;
51298;SDS011;37382;45.192;9.790;2023-07-28T16:19:26;6.28;;;2.08;;
51298;SDS011;37382;45.192;9.790;2023-07-28T16:21:54;7.05;;;2.58;;
51298;SDS011;37382;45.192;9.790;2023-07-28T16:24:25;15.00;;;2.60;;
51298;SDS011;37382;45.192;9.790;2023-07-28T16:26:53;6.88;;;2.33;;
51298;SDS011;37382;45.192;9.790;2023-07-28T16:29:21;7.40;;;2.22;;
51298;SDS011;37382;45.192;9.790;2023-07-28T16:31:49;6.88;;;2.20;;
51298;SDS011;37382;45.192;9.790;2023-07-28T16:34:17;3.35;;;2.22;;
51298;SDS011;37382;45.192;9.790;2023-07-28T16:36:45;9.10;;;2.25;;
51298;SDS011;37382;45.192;9.790;2023-07-28T16:39:12;6.57;;;2.30;;
51298;SDS011;37382;45.192;9.790;2023-07-28T16:41:40;12.88;;;2.35;;
51298;SDS011;37382;45.192;9.790;2023-07-28T16:44:09;4.50;;;2.20;;
51298;SDS011;37382;45.192;9.790;2023-07-28T16:46:38;8.88;;;2.55;;
51298;SDS011;37382;45.192;9.790;2023-07-28T16:49:05;11.30;;;2.45;;
51298;SDS011;37382;45.192;9.790;2023-07-28T16:51:32;8.90;;;2.30;;
51298;SDS011;37382;45.192;9.790;2023-07-28T16:54:00;8.60;;;2.08;;
51298;SDS011;37382;45.192;9.790;2023-07-28T16:56:28;9.18;;;2.50;;
51298;SDS011;37382;45.192;9.790;2023-07-28T16:58:56;7.18;;;2.17;;
51298;SDS011;37382;45.192;9.790;2023-07-28T17:01:23;15.20;;;2.90;;
51298;SDS011;37382;45.192;9.790;2023-07-28T17:03:51;15.57;;;2.67;;
51298;SDS011;37382;45.192;9.790;2023-07-28T17:06:19;13.60;;;3.03;;
51298;SDS011;37382;45.192;9.790;2023-07-28T17:08:46;13.88;;;2.90;;
51298;SDS011;37382;45.192;9.790;2023-07-28T17:11:14;16.70;;;2.67;;
51298;SDS011;37382;45.192;9.790;2023-07-28T17:13:41;12.77;;;2.83;;
51298;SDS011;37382;45.192;9.790;2023-07-28T17:16:09;13.18;;;2.95;;
51298;SDS011;37382;45.192;9.790;2023-07-28T17:18:37;18.23;;;2.80;;
51298;SDS011;37382;45.192;9.790;2023-07-28T17:21:05;11.68;;;2.90;;
51298;SDS011;37382;45.192;9.790;2023-07-28T17:23:33;10.18;;;2.50;;
51298;SDS011;37382;45.192;9.790;2023-07-28T17:26:01;15.93;;;3.08;;
51298;SDS011;37382;45.192;9.790;2023-07-28T17:28:28;18.85;;;2.70;;
51298;SDS011;37382;45.192;9.790;2023-07-28T17:30:56;32.03;;;3.85;;
51298;SDS011;37382;45.192;9.790;2023-07-28T17:33:24;12.90;;;3.00;;
51298;SDS011;37382;45.192;9.790;2023-07-28T17:35:51;9.00;;;2.88;;
51298;SDS011;37382;45.192;9.790;2023-07-28T17:38:19;10.43;;;2.72;;
51298;SDS011;37382;45.192;9.790;2023-07-28T17:40:47;7.75;;;2.58;;
51298;SDS011;37382;45.192;9.790;2023-07-28T17:43:16;10.23;;;2.50;;
51298;SDS011;37382;45.192;9.790;2023-07-28T17:45:43;18.05;;;2.58;;
51298;SDS011;37382;45.192;9.790;2023-07-28T17:48:11;14.32;;;2.90;;
51298;SDS011;37382;45.192;9.790;2023-07-28T17:50:41;12.27;;;3.30;;
51298;SDS011;37382;45.192;9.790;2023-07-28T17:53:09;11.32;;;2.80;;
51298;SDS011;37382;45.192;9.790;2023-07-28T17:55:37;11.80;;;3.50;;
51298;SDS011;37382;45.192;9.790;2023-07-28T17:58:06;6.72;;;3.00;;
51298;SDS011;37382;45.192;9.790;2023-07-28T18:00:34;12.90;;;3.38;;
51298;SDS011;37382;45.192;9.790;2023-07-28T18:03:03;11.73;;;3.75;;
51298;SDS011;37382;45.192;9.790;2023-07-28T18:05:30;10.25;;;3.60;;
51298;SDS011;37382;45.192;9.790;2023-07-28T18:07:58;19.05;;;4.43;;
51298;SDS011;37382;45.192;9.790;2023-07-28T18:10:26;12.88;;;4.13;;
51298;SDS011;37382;45.192;9.790;2023-07-28T18:12:53;14.00;;;4.22;;
51298;SDS011;37382;45.192;9.790;2023-07-28T18:15:21;16.73;;;3.40;;
51298;SDS011;37382;45.192;9.790;2023-07-28T18:17:48;13.40;;;3.40;;
51298;SDS011;37382;45.192;9.790;2023-07-28T18:20:15;10.77;;;3.22;;
51298;SDS011;37382;45.192;9.790;2023-07-28T18:22:43;12.45;;;3.17;;
51298;SDS011;37382;45.192;9.790;2023-07-28T18:25:11;8.80;;;3.80;;
51298;SDS011;37382;45.192;9.790;2023-07-28T18:27:39;15.38;;;3.58;;
51298;SDS011;37382;45.192;9.790;2023-07-28T18:30:07;16.25;;;3.17;;
51298;SDS011;37382;45.192;9.790;2023-07-28T18:32:35;13.23;;;3.22;;
51298;SDS011;37382;45.192;9.790;2023-07-28T18:35:03;14.55;;;3.38;;
51298;SDS011;37382;45.192;9.790;2023-07-28T18:37:32;10.80;;;3.10;;
51298;SDS011;37382;45.192;9.790;2023-07-28T18:40:00;11.30;;;3.30;;
51298;SDS011;37382;45.192;9.790;2023-07-28T18:42:28;11.70;;;2.92;;
51298;SDS011;37382;45.192;9.790;2023-07-28T18:44:55;10.73;;;3.05;;
51298;SDS011;37382;45.192;9.790;2023-07-28T18:47:23;8.02;;;3.10;;
51298;SDS011;37382;45.192;9.790;2023-07-28T18:49:51;8.88;;;3.08;;
51298;SDS011;37382;45.192;9.790;2023-07-28T18:52:18;12.43;;;3.22;;
51298;SDS011;37382;45.192;9.790;2023-07-28T18:54:46;12.43;;;3.25;;
51298;SDS011;37382;45.192;9.790;2023-07-28T18:57:13;14.85;;;3.58;;
51298;SDS011;37382;45.192;9.790;2023-07-28T18:59:41;9.65;;;3.13;;
51298;SDS011;37382;45.192;9.790;2023-07-28T19:02:09;8.77;;;3.45;;
51298;SDS011;37382;45.192;9.790;2023-07-28T19:04:36;11.60;;;3.67;;
51298;SDS011;37382;45.192;9.790;2023-07-28T19:07:05;7.53;;;3.70;;
51298;SDS011;37382;45.192;9.790;2023-07-28T19:09:32;10.40;;;3.95;;
51298;SDS011;37382;45.192;9.790;2023-07-28T19:12:00;17.20;;;3.90;;
51298;SDS011;37382;45.192;9.790;2023-07-28T19:14:27;9.45;;;3.90;;
51298;SDS011;37382;45.192;9.790;2023-07-28T19:16:54;14.40;;;3.80;;
51298;SDS011;37382;45.192;9.790;2023-07-28T19:19:22;14.48;;;3.97;;
51298;SDS011;37382;45.192;9.790;2023-07-28T19:21:49;19.05;;;4.40;;
51298;SDS011;37382;45.192;9.790;2023-07-28T19:24:19;12.55;;;3.35;;